createdAt,value
2022-08-23T00:00:06.627Z,101335.31
2022-08-23T00:02:45.946Z,101323.88
2022-08-23T00:05:18.686Z,101326.78
2022-08-23T00:07:51.619Z,101330.81
2022-08-23T00:10:25.733Z,101325.19
2022-08-23T00:12:58.510Z,101328.13
2022-08-23T00:15:31.210Z,101322.63
2022-08-23T00:18:03.890Z,101327.00
2022-08-23T00:20:37.206Z,101330.47
2022-08-23T00:23:10.565Z,101335.63
2022-08-23T00:25:44.874Z,101328.91
2022-08-23T00:28:18.034Z,101327.09
2022-08-23T00:30:50.757Z,101337.63
2022-08-23T00:33:24.207Z,101328.09
2022-08-23T00:35:56.901Z,101324.53
2022-08-23T00:38:32.681Z,101318.47
2022-08-23T00:41:08.683Z,101316.59
2022-08-23T00:44:01.072Z,101313.34
2022-08-23T00:47:00.781Z,101309.06
2022-08-23T00:49:36.010Z,101314.66
2022-08-23T00:52:16.130Z,101315.34
2022-08-23T00:54:51.386Z,101312.47
2022-08-23T00:57:25.917Z,101310.63
2022-08-23T00:59:58.761Z,101319.81
2022-08-23T01:02:31.428Z,101310.63
2022-08-23T01:05:06.624Z,101309.06
2022-08-23T01:07:47.711Z,101309.84
2022-08-23T01:10:26.073Z,101314.22
2022-08-23T01:13:09.446Z,101317.44
2022-08-23T01:15:46.665Z,101319.44
2022-08-23T01:18:24.185Z,101319.88
2022-08-23T01:21:02.987Z,101322.13
2022-08-23T01:23:43.121Z,101315.28
2022-08-23T01:26:21.646Z,101322.03
2022-08-23T01:28:56.434Z,101314.88
2022-08-23T01:31:30.348Z,101303.22
2022-08-23T01:34:07.278Z,101309.28
2022-08-23T01:36:44.222Z,101311.81
2022-08-23T01:39:18.336Z,101306.22
2022-08-23T01:41:51.390Z,101316.63
2022-08-23T01:44:24.285Z,101315.75
2022-08-23T01:47:00.453Z,101310.16
2022-08-23T01:49:34.519Z,101311.91
2022-08-23T01:52:07.659Z,101308.00
2022-08-23T01:54:41.976Z,101301.63
2022-08-23T01:57:15.796Z,101314.38
2022-08-23T01:59:48.610Z,101307.31
2022-08-23T02:02:21.577Z,101314.03
2022-08-23T02:04:54.274Z,101304.97
2022-08-23T02:07:28.004Z,101304.97
2022-08-23T02:10:02.994Z,101307.75
2022-08-23T02:12:36.019Z,101306.53
2022-08-23T02:15:18.572Z,101316.69
2022-08-23T02:17:55.647Z,101321.06
2022-08-23T02:20:28.864Z,101309.53
2022-08-23T02:23:01.775Z,101321.06
2022-08-23T02:25:36.155Z,101327.09
2022-08-23T02:28:09.580Z,101316.69
2022-08-23T02:30:45.332Z,101317.13
2022-08-23T02:33:19.668Z,101314.34
2022-08-23T02:35:53.458Z,101326.22
2022-08-23T02:38:27.326Z,101328.75
2022-08-23T02:41:02.191Z,101326.50
2022-08-23T02:43:40.912Z,101320.25
2022-08-23T02:46:14.675Z,101326.94
2022-08-23T02:48:49.415Z,101327.41
2022-08-23T02:51:22.885Z,101326.94
2022-08-23T02:53:55.624Z,101329.41
2022-08-23T02:56:31.946Z,101327.84
2022-08-23T02:59:05.507Z,101337.00
2022-08-23T03:01:40.635Z,101334.31
2022-08-23T03:04:26.175Z,101336.31
2022-08-23T03:06:58.972Z,101332.94
2022-08-23T03:09:32.547Z,101336.09
2022-08-23T03:12:06.605Z,101335.28
2022-08-23T03:14:42.935Z,101333.81
2022-08-23T03:17:15.671Z,101327.78
2022-08-23T03:19:48.931Z,101335.06
2022-08-23T03:22:23.103Z,101331.09
2022-08-23T03:24:56.333Z,101331.09
2022-08-23T03:27:45.026Z,101331.22
2022-08-23T03:30:20.087Z,101325.97
2022-08-23T03:33:01.480Z,101327.72
2022-08-23T03:35:35.454Z,101332.19
2022-08-23T03:38:09.611Z,101325.09
2022-08-23T03:40:43.251Z,101324.75
2022-08-23T03:43:17.378Z,101332.00
2022-08-23T03:45:50.242Z,101329.28
2022-08-23T03:48:22.861Z,101336.56
2022-08-23T03:50:55.680Z,101338.63
2022-08-23T03:53:29.642Z,101329.03
2022-08-23T03:56:02.559Z,101338.31
2022-08-23T03:58:36.719Z,101346.69
2022-08-23T04:01:09.701Z,101349.91
2022-08-23T04:03:43.513Z,101342.75
2022-08-23T04:06:17.272Z,101338.47
2022-08-23T04:08:50.048Z,101345.28
2022-08-23T04:11:23.555Z,101352.78
2022-08-23T04:14:04.472Z,101352.88
2022-08-23T04:16:38.917Z,101360.16
2022-08-23T04:19:14.372Z,101354.97
2022-08-23T04:21:58.899Z,101354.19
2022-08-23T04:24:36.406Z,101352.28
2022-08-23T04:27:09.659Z,101350.72
2022-08-23T04:29:44.400Z,101354.38
2022-08-23T04:32:28.109Z,101346.78
2022-08-23T04:35:02.839Z,101347.22
2022-08-23T04:37:35.667Z,101350.44
2022-08-23T04:40:28.172Z,101344.41
2022-08-23T04:43:02.629Z,101347.38
2022-08-23T04:45:39.099Z,101348.94
2022-08-23T04:48:13.821Z,101356.09
2022-08-23T04:50:51.210Z,101362.22
2022-08-23T04:53:25.440Z,101364.66
2022-08-23T04:56:20.866Z,101374.69
2022-08-23T04:58:53.638Z,101376.25
2022-08-23T05:01:27.683Z,101373.56
2022-08-23T05:04:02.699Z,101375.19
2022-08-23T05:06:37.098Z,101372.69
2022-08-23T05:09:10.617Z,101369.38
2022-08-23T05:11:43.343Z,101368.59
2022-08-23T05:14:16.202Z,101378.97
2022-08-23T05:16:50.285Z,101375.63
2022-08-23T05:19:24.391Z,101374.94
2022-08-23T05:21:57.414Z,101381.38
2022-08-23T05:24:42.942Z,101386.97
2022-08-23T05:27:15.933Z,101382.66
2022-08-23T05:29:49.889Z,101387.84
2022-08-23T05:32:24.477Z,101387.84
2022-08-23T05:34:57.859Z,101390.13
2022-08-23T05:37:30.811Z,101388.81
2022-08-23T05:40:03.641Z,101401.53
2022-08-23T05:42:42.426Z,101399.53
2022-08-23T05:45:20.713Z,101401.97
2022-08-23T05:47:56.375Z,101410.69
2022-08-23T05:50:38.250Z,101406.69
2022-08-23T05:53:11.327Z,101408.19
2022-08-23T05:55:44.338Z,101400.94
2022-08-23T05:58:24.310Z,101404.09
2022-08-23T06:00:57.185Z,101402.00
2022-08-23T06:03:31.745Z,101404.63
2022-08-23T06:06:07.094Z,101402.28
2022-08-23T06:08:41.205Z,101406.63
2022-08-23T06:11:18.179Z,101403.66
2022-08-23T06:13:53.835Z,101409.19
2022-08-23T06:16:29.148Z,101405.59
2022-08-23T06:19:03.843Z,101398.09
2022-08-23T06:21:55.541Z,101402.47
2022-08-23T06:24:32.248Z,101400.09
2022-08-23T06:27:17.869Z,101404.81
2022-08-23T06:29:51.184Z,101404.66
2022-08-23T06:32:51.385Z,101407.78
2022-08-23T06:35:44.656Z,101410.06
2022-08-23T06:38:23.537Z,101416.34
2022-08-23T06:41:14.823Z,101408.31
2022-08-23T06:43:55.975Z,101412.16
2022-08-23T06:46:39.694Z,101411.63
2022-08-23T06:49:14.031Z,101410.66
2022-08-23T06:51:52.371Z,101411.25
2022-08-23T06:54:47.047Z,101422.00
2022-08-23T06:57:42.568Z,101421.91
2022-08-23T07:00:34.030Z,101420.13
2022-08-23T07:03:27.010Z,101424.50
2022-08-23T07:06:18.592Z,101420.03
2022-08-23T07:08:52.856Z,101426.75
2022-08-23T07:11:26.435Z,101427.47
2022-08-23T07:13:59.896Z,101434.09
2022-08-23T07:16:33.921Z,101431.63
2022-08-23T07:19:07.292Z,101431.09
2022-08-23T07:21:41.111Z,101434.22
2022-08-23T07:24:15.515Z,101438.59
2022-08-23T07:26:52.063Z,101435.28
2022-08-23T07:29:25.353Z,101433.06
2022-08-23T07:31:58.433Z,101434.53
2022-08-23T07:34:31.269Z,101432.31
2022-08-23T07:37:11.299Z,101438.50
2022-08-23T07:39:50.133Z,101438.31
2022-08-23T07:42:24.304Z,101439.75
2022-08-23T07:45:01.150Z,101441.22
2022-08-23T07:47:33.872Z,101448.50
2022-08-23T07:50:07.689Z,101447.72
2022-08-23T07:52:40.642Z,101451.78
2022-08-23T07:55:15.470Z,101463.78
2022-08-23T07:58:20.807Z,101467.28
2022-08-23T08:01:12.726Z,101468.63
2022-08-23T08:03:54.226Z,101465.25
2022-08-23T08:06:35.259Z,101468.72
2022-08-23T08:09:09.324Z,101472.44
2022-08-23T08:11:45.230Z,101475.34
2022-08-23T08:14:19.317Z,101478.38
2022-08-23T08:17:00.505Z,101479.84
2022-08-23T08:20:02.367Z,101480.81
2022-08-23T08:22:58.383Z,101480.38
2022-08-23T08:26:01.160Z,101476.66
2022-08-23T08:28:36.491Z,101487.44
2022-08-23T08:31:10.679Z,101487.19
2022-08-23T08:33:43.597Z,101489.16
2022-08-23T08:36:31.269Z,101483.63
2022-08-23T08:39:06.056Z,101487.66
2022-08-23T08:41:54.716Z,101479.91
2022-08-23T08:44:46.001Z,101488.31
2022-08-23T08:47:32.167Z,101486.50
2022-08-23T08:50:15.785Z,101496.50
2022-08-23T08:52:53.706Z,101494.13
2022-08-23T08:55:47.168Z,101496.09
2022-08-23T08:58:25.016Z,101503.94
2022-08-23T09:00:59.332Z,101497.81
2022-08-23T09:03:35.597Z,101494.13
2022-08-23T09:06:15.977Z,101496.34
2022-08-23T09:09:03.752Z,101499.84
2022-08-23T09:11:50.281Z,101508.97
2022-08-23T09:14:50.800Z,101511.31
2022-08-23T09:17:34.441Z,101499.63
2022-08-23T09:20:08.367Z,101503.94
2022-08-23T09:22:45.813Z,101501.22
2022-08-23T09:25:28.990Z,101509.88
2022-08-23T09:28:11.479Z,101509.19
2022-08-23T09:30:53.808Z,101507.41
2022-08-23T09:33:37.904Z,101519.63
2022-08-23T09:36:18.950Z,101508.69
2022-08-23T09:38:57.659Z,101519.34
2022-08-23T09:41:36.588Z,101515.00
2022-08-23T09:44:13.723Z,101517.47
2022-08-23T09:46:48.928Z,101511.59
2022-08-23T09:49:30.012Z,101511.88
2022-08-23T09:52:22.523Z,101510.34
2022-08-23T09:55:05.871Z,101508.25
2022-08-23T09:57:48.737Z,101514.03
2022-08-23T10:00:28.871Z,101498.34
2022-08-23T10:03:28.903Z,101503.59
2022-08-23T10:06:31.240Z,101510.41
2022-08-23T10:09:09.664Z,101500.63
2022-08-23T10:11:46.657Z,101502.91
2022-08-23T10:14:23.474Z,101496.59
2022-08-23T10:17:11.110Z,101502.25
2022-08-23T10:19:50.857Z,101500.25
2022-08-23T10:22:28.545Z,101493.47
2022-08-23T10:25:28.364Z,101495.34
2022-08-23T10:28:28.989Z,101497.84
2022-08-23T10:31:14.539Z,101500.06
2022-08-23T10:33:54.891Z,101497.13
2022-08-23T10:36:34.912Z,101495.19
2022-08-23T10:39:18.884Z,101501.41
2022-08-23T10:41:59.883Z,101499.16
2022-08-23T10:44:38.119Z,101508.31
2022-08-23T10:47:18.491Z,101501.81
2022-08-23T10:49:53.837Z,101498.94
2022-08-23T10:52:33.812Z,101507.34
2022-08-23T10:55:34.811Z,101509.25
2022-08-23T10:58:11.176Z,101506.28
2022-08-23T11:00:44.456Z,101499.22
2022-08-23T11:03:28.908Z,101500.41
2022-08-23T11:06:25.579Z,101506.63
2022-08-23T11:09:02.313Z,101498.81
2022-08-23T11:11:43.160Z,101504.31
2022-08-23T11:14:28.820Z,101506.53
2022-08-23T11:17:05.603Z,101505.09
2022-08-23T11:19:50.841Z,101501.00
2022-08-23T11:22:25.920Z,101513.13
2022-08-23T11:25:03.382Z,101516.28
2022-08-23T11:27:45.599Z,101520.25
2022-08-23T11:30:45.577Z,101521.16
2022-08-23T11:33:24.962Z,101526.97
2022-08-23T11:36:18.377Z,101528.94
2022-08-23T11:39:21.644Z,101522.63
2022-08-23T11:42:06.921Z,101522.38
2022-08-23T11:44:49.226Z,101518.34
2022-08-23T11:47:29.698Z,101530.03
2022-08-23T11:50:23.267Z,101522.84
2022-08-23T11:53:18.161Z,101522.09
2022-08-23T11:56:15.225Z,101524.63
2022-08-23T11:59:24.781Z,101525.75
2022-08-23T12:01:59.409Z,101525.47
2022-08-23T12:04:37.453Z,101531.69
2022-08-23T12:07:13.233Z,101537.34
2022-08-23T12:09:56.018Z,101529.13
2022-08-23T12:12:37.818Z,101539.19
2022-08-23T12:15:14.310Z,101545.44
2022-08-23T12:18:14.148Z,101535.81
2022-08-23T12:20:48.795Z,101537.88
2022-08-23T12:23:22.824Z,101539.97
2022-08-23T12:26:01.213Z,101533.50
2022-08-23T12:28:44.318Z,101533.47
2022-08-23T12:31:25.116Z,101538.44
2022-08-23T12:34:12.890Z,101535.91
2022-08-23T12:36:55.334Z,101532.00
2022-08-23T12:39:32.666Z,101528.97
2022-08-23T12:42:11.381Z,101525.88
2022-08-23T12:44:46.376Z,101538.53
2022-08-23T12:47:22.618Z,101531.09
2022-08-23T12:50:00.354Z,101529.78
2022-08-23T12:52:36.221Z,101519.69
2022-08-23T12:55:15.023Z,101529.50
2022-08-23T12:57:56.288Z,101529.53
2022-08-23T13:00:33.920Z,101533.66
2022-08-23T13:03:17.024Z,101527.91
2022-08-23T13:05:56.262Z,101526.91
2022-08-23T13:08:34.585Z,101529.97
2022-08-23T13:11:10.103Z,101530.19
2022-08-23T13:13:45.237Z,101520.63
2022-08-23T13:16:28.829Z,101518.53
2022-08-23T13:19:18.158Z,101513.31
2022-08-23T13:22:14.062Z,101518.44
2022-08-23T13:25:27.043Z,101517.69
2022-08-23T13:27:56.181Z,101512.59
2022-08-23T13:30:31.046Z,101512.97
2022-08-23T13:33:23.113Z,101518.66
2022-08-23T13:36:13.217Z,101518.59
2022-08-23T13:38:49.054Z,101519.31
2022-08-23T13:41:32.709Z,101516.03
2022-08-23T13:44:18.961Z,101512.06
2022-08-23T13:46:52.865Z,101508.50
2022-08-23T13:49:28.655Z,101507.38
2022-08-23T13:52:41.693Z,101519.06
2022-08-23T13:55:03.648Z,101529.94
2022-08-23T13:57:41.043Z,101532.53
2022-08-23T14:00:19.291Z,101527.75
2022-08-23T14:02:52.653Z,101533.66
2022-08-23T14:05:25.463Z,101527.88
2022-08-23T14:07:58.392Z,101528.91
2022-08-23T14:10:32.622Z,101526.28
2022-08-23T14:13:06.112Z,101532.47
2022-08-23T14:15:58.938Z,101527.38
2022-08-23T14:18:34.447Z,101533.22
2022-08-23T14:21:09.269Z,101538.72
2022-08-23T14:23:42.058Z,101538.19
2022-08-23T14:26:19.864Z,101539.75
2022-08-23T14:28:54.408Z,101536.16
2022-08-23T14:31:27.436Z,101537.28
2022-08-23T14:34:02.172Z,101535.38
2022-08-23T14:36:35.284Z,101530.56
2022-08-23T14:39:08.105Z,101535.16
2022-08-23T14:41:42.217Z,101520.88
2022-08-23T14:44:16.507Z,101536.69
2022-08-23T14:46:49.268Z,101536.16
2022-08-23T14:49:21.964Z,101534.19
2022-08-23T14:51:55.147Z,101535.44
2022-08-23T14:54:28.220Z,101534.13
2022-08-23T14:57:02.483Z,101540.31
2022-08-23T14:59:35.407Z,101528.47
2022-08-23T15:02:11.980Z,101532.34
2022-08-23T15:04:44.731Z,101534.66
2022-08-23T15:07:19.118Z,101526.38
2022-08-23T15:09:55.817Z,101531.03
2022-08-23T15:15:22.983Z,101533.13
2022-08-23T15:17:58.059Z,101527.16
2022-08-23T15:20:33.431Z,101521.97
2022-08-23T15:23:07.915Z,101522.28
2022-08-23T15:25:43.660Z,101523.28
2022-08-23T15:28:19.567Z,101526.91
2022-08-23T15:30:52.724Z,101519.13
2022-08-23T15:33:27.123Z,101524.63
2022-08-23T15:36:04.037Z,101523.31
2022-08-23T15:38:38.142Z,101517.84
2022-08-23T15:41:11.076Z,101518.16
2022-08-23T15:43:45.489Z,101521.25
2022-08-23T15:46:21.682Z,101518.94
2022-08-23T15:48:57.729Z,101518.41
2022-08-23T15:51:30.550Z,101520.72
2022-08-23T15:54:03.285Z,101516.31
2022-08-23T15:56:40.798Z,101516.03
2022-08-23T15:59:16.838Z,101512.94
2022-08-23T16:01:49.815Z,101514.25
2022-08-23T16:04:22.533Z,101514.97
2022-08-23T16:06:55.710Z,101515.75
2022-08-23T16:09:29.169Z,101517.34
2022-08-23T16:12:02.678Z,101513.16
2022-08-23T16:14:38.502Z,101521.09
2022-08-23T16:17:11.576Z,101513.53
2022-08-23T16:19:44.364Z,101517.88
2022-08-23T16:22:17.341Z,101508.72
2022-08-23T16:24:50.169Z,101517.16
2022-08-23T16:27:22.913Z,101521.03
2022-08-23T16:29:56.969Z,101529.72
2022-08-23T16:32:29.710Z,101522.44
2022-08-23T16:35:02.478Z,101514.28
2022-08-23T16:37:36.169Z,101525.59
2022-08-23T16:40:10.394Z,101517.78
2022-08-23T16:42:43.289Z,101523.81
2022-08-23T16:45:17.773Z,101520.41
2022-08-23T16:47:58.685Z,101518.44
2022-08-23T16:50:32.903Z,101509.66
2022-08-23T16:53:07.449Z,101520.00
2022-08-23T16:55:41.161Z,101510.09
2022-08-23T16:58:14.351Z,101519.66
2022-08-23T17:00:50.417Z,101519.44
2022-08-23T17:03:23.804Z,101522.13
2022-08-23T17:05:56.601Z,101521.22
2022-08-23T17:08:29.373Z,101521.78
2022-08-23T17:11:03.431Z,101524.53
2022-08-23T17:13:36.276Z,101522.91
2022-08-23T17:16:10.925Z,101526.00
2022-08-23T17:18:43.959Z,101529.16
2022-08-23T17:21:17.610Z,101534.16
2022-08-23T17:23:50.642Z,101532.69
2022-08-23T17:26:23.958Z,101537.19
2022-08-23T17:28:57.308Z,101541.03
2022-08-23T17:31:31.757Z,101541.50
2022-08-23T17:34:05.157Z,101545.31
2022-08-23T17:36:41.141Z,101551.75
2022-08-23T17:39:15.497Z,101561.69
2022-08-23T17:41:52.286Z,101559.38
2022-08-23T17:44:25.135Z,101556.38
2022-08-23T17:46:59.144Z,101559.50
2022-08-23T17:49:31.986Z,101560.94
2022-08-23T17:52:05.169Z,101558.13
2022-08-23T17:54:38.156Z,101569.34
2022-08-23T17:57:11.920Z,101576.59
2022-08-23T17:59:45.056Z,101578.84
2022-08-23T18:02:20.624Z,101580.09
2022-08-23T18:04:53.972Z,101577.97
2022-08-23T18:07:27.137Z,101581.28
2022-08-23T18:10:00.022Z,101577.38
2022-08-23T18:12:34.095Z,101578.34
2022-08-23T18:15:09.321Z,101583.44
2022-08-23T18:17:43.392Z,101586.31
2022-08-23T18:20:16.104Z,101582.63
2022-08-23T18:22:48.905Z,101576.19
2022-08-23T18:25:22.831Z,101586.16
2022-08-23T18:28:06.519Z,101576.59
2022-08-23T18:30:47.422Z,101583.13
2022-08-23T18:33:25.301Z,101580.88
2022-08-23T18:36:04.737Z,101581.41
2022-08-23T18:38:37.532Z,101581.06
2022-08-23T18:41:10.257Z,101585.94
2022-08-23T18:43:43.173Z,101590.94
2022-08-23T18:46:18.391Z,101590.63
2022-08-23T18:48:53.494Z,101598.16
2022-08-23T18:51:27.337Z,101582.22
2022-08-23T18:54:00.357Z,101600.41
2022-08-23T18:56:33.646Z,101598.53
2022-08-23T18:59:07.186Z,101602.16
2022-08-23T19:01:41.341Z,101607.94
2022-08-23T19:04:16.502Z,101606.09
2022-08-23T19:06:49.261Z,101608.72
2022-08-23T19:13:33.035Z,101621.00
2022-08-23T19:16:06.694Z,101615.50
2022-08-23T19:18:40.211Z,101615.66
2022-08-23T19:21:18.289Z,101620.16
2022-08-23T19:23:58.685Z,101622.91
2022-08-23T19:26:36.077Z,101621.00
2022-08-23T19:29:10.329Z,101623.66
2022-08-23T19:31:46.744Z,101624.69
2022-08-23T19:34:22.180Z,101616.38
2022-08-23T19:37:01.218Z,101627.84
2022-08-23T19:39:35.199Z,101623.75
2022-08-23T19:42:11.741Z,101635.44
2022-08-23T19:44:44.721Z,101626.72
2022-08-23T19:47:19.805Z,101638.28
2022-08-23T19:49:54.570Z,101641.34
2022-08-23T19:52:28.829Z,101645.25
2022-08-23T19:55:05.183Z,101647.38
2022-08-23T19:57:39.262Z,101643.44
2022-08-23T20:00:19.325Z,101646.38
2022-08-23T20:02:53.059Z,101644.41
2022-08-23T20:05:25.913Z,101650.97
2022-08-23T20:08:00.156Z,101655.25
2022-08-23T20:10:33.164Z,101651.81
2022-08-23T20:13:06.511Z,101656.09
2022-08-23T20:15:39.922Z,101652.06
2022-08-23T20:18:12.817Z,101661.69
2022-08-23T20:20:46.231Z,101660.94
2022-08-23T20:23:37.929Z,101666.16
2022-08-23T20:26:11.280Z,101669.75
2022-08-23T20:28:59.187Z,101663.81
2022-08-23T20:31:36.023Z,101667.59
2022-08-23T20:34:12.106Z,101667.09
2022-08-23T20:36:45.680Z,101669.22
2022-08-23T20:39:23.937Z,101669.69
2022-08-23T20:41:57.261Z,101665.91
2022-08-23T20:44:30.142Z,101662.78
2022-08-23T20:47:08.904Z,101665.25
2022-08-23T20:49:42.365Z,101656.03
2022-08-23T20:52:16.658Z,101663.03
2022-08-23T20:54:52.717Z,101663.94
2022-08-23T20:57:25.632Z,101663.28
2022-08-23T21:00:01.625Z,101658.56
2022-08-23T21:02:34.645Z,101661.06
2022-08-23T21:05:08.037Z,101667.16
2022-08-23T21:07:41.039Z,101660.88
2022-08-23T21:10:16.558Z,101657.41
2022-08-23T21:12:50.337Z,101660.31
2022-08-23T21:15:23.178Z,101659.97
2022-08-23T21:17:55.845Z,101669.75
2022-08-23T21:20:29.039Z,101670.69
2022-08-23T21:23:02.361Z,101664.41
2022-08-23T21:25:36.658Z,101666.44
2022-08-23T21:28:09.614Z,101665.44
2022-08-23T21:30:42.422Z,101661.50
2022-08-23T21:33:15.575Z,101661.66
2022-08-23T21:35:48.478Z,101666.59
2022-08-23T21:38:21.726Z,101661.91
2022-08-23T21:40:58.126Z,101662.00
2022-08-23T21:43:32.521Z,101658.88
2022-08-23T21:46:07.297Z,101659.66
2022-08-23T21:48:40.271Z,101653.38
2022-08-23T21:51:12.951Z,101656.63
2022-08-23T21:53:47.441Z,101663.28
2022-08-23T21:56:21.798Z,101663.28
2022-08-23T21:58:58.962Z,101659.47
2022-08-23T22:01:35.551Z,101654.75
2022-08-23T22:04:12.060Z,101656.53
2022-08-23T22:06:46.610Z,101660.59
2022-08-23T22:09:25.706Z,101655.09
2022-08-23T22:12:06.453Z,101648.03
2022-08-23T22:14:39.679Z,101649.72
2022-08-23T22:17:12.526Z,101651.06
2022-08-23T22:19:45.678Z,101645.13
2022-08-23T22:22:18.937Z,101645.22
2022-08-23T22:24:52.408Z,101651.63
2022-08-23T22:27:27.046Z,101643.78
2022-08-23T22:30:00.571Z,101648.94
2022-08-23T22:32:33.454Z,101645.91
2022-08-23T22:35:06.637Z,101641.53
2022-08-23T22:37:53.598Z,101644.66
2022-08-23T22:40:33.306Z,101647.91
2022-08-23T22:43:08.131Z,101647.72
2022-08-23T22:45:49.671Z,101649.38
2022-08-23T22:48:22.664Z,101643.22
2022-08-23T22:51:06.281Z,101646.78
2022-08-23T22:53:42.113Z,101646.78
2022-08-23T22:56:16.894Z,101648.22
2022-08-23T22:58:52.720Z,101646.97
2022-08-23T23:01:28.719Z,101655.50
2022-08-23T23:04:03.604Z,101658.84
2022-08-23T23:06:37.576Z,101654.94
2022-08-23T23:09:12.398Z,101663.00
2022-08-23T23:11:46.548Z,101652.69
2022-08-23T23:14:21.711Z,101663.75
2022-08-23T23:16:54.563Z,101664.31
2022-08-23T23:19:45.788Z,101662.75
2022-08-23T23:22:19.552Z,101655.66
2022-08-23T23:24:52.171Z,101654.09
2022-08-23T23:27:25.659Z,101662.16
2022-08-23T23:29:59.659Z,101662.25
2022-08-23T23:32:37.229Z,101667.50
2022-08-23T23:35:14.156Z,101664.03
2022-08-23T23:37:49.593Z,101662.09
2022-08-23T23:40:22.996Z,101662.63
2022-08-23T23:42:56.401Z,101666.78
2022-08-23T23:45:30.587Z,101658.47
2022-08-23T23:48:04.012Z,101665.28
2022-08-23T23:50:46.883Z,101668.50
2022-08-23T23:53:20.280Z,101664.59
2022-08-23T23:56:00.385Z,101671.94
2022-08-23T23:58:34.623Z,101674.41
